createdAt,value
2019-05-22T00:04:54.388Z,80.10
2019-05-22T00:07:25.421Z,80.90
2019-05-22T00:09:57.631Z,80.60
2019-05-22T00:12:44.291Z,81.60
2019-05-22T00:15:03.477Z,81.40
2019-05-22T00:17:35.337Z,81.50
2019-05-22T00:20:07.578Z,81.70
2019-05-22T00:22:40.393Z,82.20
2019-05-22T00:25:13.102Z,82.60
2019-05-22T00:27:46.723Z,82.30
2019-05-22T00:30:19.362Z,82.80
2019-05-22T00:32:50.002Z,82.90
2019-05-22T00:35:23.904Z,82.50
2019-05-22T00:37:55.696Z,82.90
2019-05-22T00:40:29.073Z,83.10
2019-05-22T00:43:05.468Z,83.20
2019-05-22T00:45:34.429Z,83.00
2019-05-22T00:48:06.058Z,82.80
2019-05-22T00:50:39.042Z,82.80
2019-05-22T00:53:11.973Z,82.50
2019-05-22T00:55:44.762Z,83.00
2019-05-22T00:58:17.101Z,83.40
2019-05-22T01:00:48.240Z,83.60
2019-05-22T01:03:20.323Z,83.30
2019-05-22T01:05:52.628Z,83.10
2019-05-22T01:08:25.356Z,82.90
2019-05-22T01:10:57.716Z,83.90
2019-05-22T01:13:32.290Z,83.80
2019-05-22T01:16:04.207Z,83.80
2019-05-22T01:18:37.235Z,83.40
2019-05-22T01:21:09.124Z,83.40
2019-05-22T01:23:41.154Z,83.30
2019-05-22T01:26:14.453Z,83.30
2019-05-22T01:28:46.181Z,83.40
2019-05-22T01:31:18.802Z,83.30
2019-05-22T01:33:51.319Z,83.40
2019-05-22T01:36:23.578Z,83.70
2019-05-22T01:38:57.398Z,84.00
2019-05-22T01:41:31.672Z,84.30
2019-05-22T01:44:04.418Z,84.20
2019-05-22T01:46:35.558Z,84.40
2019-05-22T01:49:09.041Z,84.00
2019-05-22T01:51:43.412Z,84.00
2019-05-22T01:54:15.949Z,83.70
2019-05-22T01:56:47.342Z,83.60
2019-05-22T01:59:19.945Z,83.80
2019-05-22T02:01:50.997Z,84.00
2019-05-22T02:04:23.296Z,84.00
2019-05-22T02:06:54.346Z,84.10
2019-05-22T02:09:28.869Z,84.70
2019-05-22T02:12:02.141Z,86.00
2019-05-22T02:14:33.840Z,84.50
2019-05-22T02:17:06.910Z,84.30
2019-05-22T02:19:37.826Z,84.20
2019-05-22T02:22:11.559Z,84.20
2019-05-22T02:24:43.105Z,84.70
2019-05-22T02:27:15.126Z,84.50
2019-05-22T02:29:48.557Z,84.20
2019-05-22T02:32:22.269Z,84.90
2019-05-22T02:34:55.606Z,83.90
2019-05-22T02:37:28.033Z,83.50
2019-05-22T02:39:59.887Z,83.80
2019-05-22T02:42:32.210Z,84.00
2019-05-22T02:45:04.925Z,84.20
2019-05-22T02:47:39.436Z,84.20
2019-05-22T02:50:11.996Z,84.30
2019-05-22T02:52:44.037Z,84.00
2019-05-22T02:55:15.113Z,84.00
2019-05-22T02:57:46.903Z,84.80
2019-05-22T03:00:18.245Z,84.00
2019-05-22T03:02:52.274Z,83.90
2019-05-22T03:05:25.260Z,84.10
2019-05-22T03:07:57.720Z,84.10
2019-05-22T03:10:30.294Z,84.40
2019-05-22T03:13:02.857Z,84.00
2019-05-22T03:15:34.023Z,83.90
2019-05-22T03:18:07.195Z,83.80
2019-05-22T03:20:39.372Z,83.80
2019-05-22T03:23:12.568Z,83.60
2019-05-22T03:25:45.432Z,83.50
2019-05-22T03:28:19.674Z,83.30
2019-05-22T03:30:51.925Z,83.50
2019-05-22T03:33:23.849Z,83.30
2019-05-22T03:35:59.838Z,82.90
2019-05-22T03:38:39.249Z,82.80
2019-05-22T03:41:12.061Z,83.30
2019-05-22T03:43:46.401Z,83.10
2019-05-22T03:46:20.375Z,83.10
2019-05-22T03:48:52.616Z,82.90
2019-05-22T03:51:24.681Z,82.50
2019-05-22T03:53:56.186Z,82.30
2019-05-22T03:56:27.475Z,82.00
2019-05-22T03:58:59.334Z,81.80
2019-05-22T04:01:32.622Z,81.40
2019-05-22T04:04:06.284Z,81.20
2019-05-22T04:06:40.803Z,80.90
2019-05-22T04:09:15.220Z,81.10
2019-05-22T04:11:48.066Z,79.80
2019-05-22T04:14:19.727Z,78.10
2019-05-22T04:16:53.390Z,78.10
2019-05-22T04:19:25.595Z,77.60
2019-05-22T04:21:57.422Z,77.70
2019-05-22T04:24:28.573Z,77.80
2019-05-22T04:27:00.150Z,77.50
2019-05-22T04:29:32.160Z,77.50
2019-05-22T04:32:06.850Z,77.10
2019-05-22T04:34:39.893Z,76.90
2019-05-22T04:37:14.272Z,76.70
2019-05-22T04:39:49.541Z,76.40
2019-05-22T04:42:22.149Z,76.30
2019-05-22T04:44:55.848Z,76.00
2019-05-22T04:47:27.913Z,75.50
2019-05-22T04:50:07.663Z,75.50
2019-05-22T04:52:32.385Z,76.40
2019-05-22T04:55:08.557Z,75.50
2019-05-22T04:57:42.482Z,75.30
2019-05-22T05:00:15.964Z,75.90
2019-05-22T05:02:47.055Z,74.80
2019-05-22T05:05:23.054Z,74.20
2019-05-22T05:07:55.095Z,74.00
2019-05-22T05:10:26.365Z,74.00
2019-05-22T05:13:00.513Z,73.80
2019-05-22T05:15:31.909Z,73.90
2019-05-22T05:18:11.209Z,73.90
2019-05-22T05:20:47.344Z,73.60
2019-05-22T05:23:19.084Z,73.00
2019-05-22T05:25:56.978Z,72.90
2019-05-22T05:28:27.891Z,72.70
2019-05-22T05:31:00.834Z,71.30
2019-05-22T05:33:38.553Z,71.50
2019-05-22T05:36:10.458Z,71.90
2019-05-22T05:38:41.639Z,72.50
2019-05-22T05:41:12.702Z,68.80
2019-05-22T05:43:45.244Z,69.60
2019-05-22T05:46:16.817Z,69.80
2019-05-22T05:48:49.761Z,69.80
2019-05-22T05:51:19.953Z,69.50
2019-05-22T05:53:53.397Z,68.80
2019-05-22T05:56:24.413Z,68.70
2019-05-22T05:58:56.774Z,68.10
2019-05-22T06:01:29.524Z,68.70
2019-05-22T06:04:10.968Z,68.50
2019-05-22T06:06:41.700Z,67.60
2019-05-22T06:09:16.002Z,67.00
2019-05-22T06:11:49.443Z,66.50
2019-05-22T06:14:23.374Z,67.20
2019-05-22T06:16:56.507Z,67.00
2019-05-22T06:19:29.795Z,67.00
2019-05-22T06:22:01.796Z,66.90
2019-05-22T06:24:34.486Z,67.60
2019-05-22T06:27:08.997Z,67.50
2019-05-22T06:29:43.253Z,67.70
2019-05-22T06:32:17.840Z,67.70
2019-05-22T06:34:49.349Z,67.80
2019-05-22T06:37:22.713Z,67.50
2019-05-22T06:39:57.725Z,67.40
2019-05-22T06:42:29.113Z,67.70
2019-05-22T06:45:00.865Z,66.40
2019-05-22T06:47:32.529Z,67.00
2019-05-22T06:50:04.655Z,66.90
2019-05-22T06:52:35.915Z,66.50
2019-05-22T06:55:08.786Z,66.30
2019-05-22T06:57:41.505Z,66.20
2019-05-22T07:00:15.451Z,66.20
2019-05-22T07:02:47.640Z,66.30
2019-05-22T07:05:20.108Z,65.70
2019-05-22T07:07:51.833Z,66.70
2019-05-22T07:10:23.356Z,65.80
2019-05-22T07:12:54.402Z,66.00
2019-05-22T07:15:29.737Z,66.00
2019-05-22T07:18:01.011Z,65.30
2019-05-22T07:20:34.643Z,65.40
2019-05-22T07:23:07.545Z,65.00
2019-05-22T07:25:40.367Z,64.90
2019-05-22T07:28:11.434Z,64.50
2019-05-22T07:30:44.361Z,64.30
2019-05-22T07:33:15.730Z,64.10
2019-05-22T07:36:07.983Z,64.30
2019-05-22T07:38:20.681Z,64.70
2019-05-22T07:40:52.519Z,64.70
2019-05-22T07:43:23.821Z,65.10
2019-05-22T07:45:58.373Z,65.20
2019-05-22T07:48:30.154Z,65.30
2019-05-22T07:51:02.362Z,64.80
2019-05-22T07:53:33.299Z,65.60
2019-05-22T07:56:07.365Z,64.80
2019-05-22T07:58:38.802Z,65.30
2019-05-22T08:01:10.928Z,65.30
2019-05-22T08:03:45.005Z,65.10
2019-05-22T08:06:17.483Z,65.10
2019-05-22T08:08:50.633Z,64.30
2019-05-22T08:11:23.147Z,64.80
2019-05-22T08:13:55.030Z,64.10
2019-05-22T08:16:26.590Z,64.40
2019-05-22T08:18:58.597Z,64.40
2019-05-22T08:21:29.996Z,64.40
2019-05-22T08:24:01.261Z,64.10
2019-05-22T08:26:33.386Z,64.00
2019-05-22T08:29:06.180Z,63.30
2019-05-22T08:31:40.394Z,63.20
2019-05-22T08:34:14.469Z,63.50
2019-05-22T08:36:46.992Z,64.00
2019-05-22T08:39:36.483Z,63.90
2019-05-22T08:42:08.794Z,63.60
2019-05-22T08:44:48.295Z,63.70
2019-05-22T08:47:21.278Z,62.80
2019-05-22T08:49:52.949Z,62.90
2019-05-22T08:52:26.703Z,62.20
2019-05-22T08:55:18.019Z,62.20
2019-05-22T08:57:50.995Z,62.30
2019-05-22T09:00:27.919Z,62.40
2019-05-22T09:03:03.051Z,62.20
2019-05-22T09:05:34.818Z,62.40
2019-05-22T09:08:05.929Z,62.40
2019-05-22T09:10:37.888Z,62.80
2019-05-22T09:13:09.197Z,62.90
2019-05-22T09:15:42.277Z,62.00
2019-05-22T09:18:14.160Z,62.90
2019-05-22T09:20:49.158Z,63.10
2019-05-22T09:23:19.318Z,62.70
2019-05-22T09:25:51.238Z,63.10
2019-05-22T09:28:22.619Z,63.10
2019-05-22T09:30:53.595Z,63.00
2019-05-22T09:33:27.629Z,62.80
2019-05-22T09:35:59.042Z,63.20
2019-05-22T09:38:30.663Z,63.40
2019-05-22T09:41:03.699Z,62.90
2019-05-22T09:43:35.097Z,62.60
2019-05-22T09:46:26.264Z,62.90
2019-05-22T09:48:58.748Z,62.90
2019-05-22T09:51:29.655Z,63.20
2019-05-22T09:54:00.801Z,63.00
2019-05-22T09:56:32.185Z,63.10
2019-05-22T09:59:03.645Z,63.20
2019-05-22T10:01:34.478Z,63.50
2019-05-22T10:04:06.067Z,63.20
2019-05-22T10:06:38.007Z,63.30
2019-05-22T10:09:13.906Z,63.20
2019-05-22T10:11:44.817Z,62.80
2019-05-22T10:14:16.254Z,63.00
2019-05-22T10:16:47.352Z,62.70
2019-05-22T10:19:18.416Z,63.10
2019-05-22T10:21:51.283Z,63.00
2019-05-22T10:24:23.483Z,63.30
2019-05-22T10:26:55.106Z,63.60
2019-05-22T10:29:26.170Z,64.00
2019-05-22T10:31:57.274Z,63.80
2019-05-22T10:34:28.283Z,64.20
2019-05-22T10:36:59.999Z,64.10
2019-05-22T10:39:32.012Z,64.30
2019-05-22T10:42:02.875Z,64.40
2019-05-22T10:44:34.080Z,64.50
2019-05-22T10:47:05.556Z,64.70
2019-05-22T10:49:36.440Z,64.90
2019-05-22T10:52:07.624Z,64.70
2019-05-22T10:54:38.591Z,64.70
2019-05-22T10:57:11.134Z,64.90
2019-05-22T10:59:42.116Z,65.00
2019-05-22T11:02:13.272Z,65.10
2019-05-22T11:04:44.273Z,65.30
2019-05-22T11:07:16.520Z,65.50
2019-05-22T11:09:47.581Z,65.50
2019-05-22T11:12:19.703Z,65.70
2019-05-22T11:14:50.834Z,65.80
2019-05-22T11:17:22.048Z,65.90
2019-05-22T11:19:52.976Z,66.00
2019-05-22T11:22:23.673Z,66.30
2019-05-22T11:24:55.344Z,66.40
2019-05-22T11:27:26.299Z,66.60
2019-05-22T11:29:57.331Z,66.80
2019-05-22T11:32:28.089Z,66.90
2019-05-22T11:34:59.016Z,67.20
2019-05-22T11:37:29.890Z,67.40
2019-05-22T11:40:01.017Z,67.70
2019-05-22T11:42:32.072Z,67.90
2019-05-22T11:45:03.081Z,68.20
2019-05-22T11:47:34.439Z,68.70
2019-05-22T11:50:06.449Z,69.10
2019-05-22T11:52:37.768Z,69.60
2019-05-22T11:55:09.592Z,70.20
2019-05-22T11:57:41.485Z,69.80
2019-05-22T12:00:13.393Z,70.10
2019-05-22T12:02:46.466Z,70.40
2019-05-22T12:05:18.207Z,70.40
2019-05-22T12:07:49.969Z,70.50
2019-05-22T12:10:24.122Z,70.50
2019-05-22T12:12:56.203Z,71.00
2019-05-22T12:15:29.599Z,71.20
2019-05-22T12:18:00.847Z,71.50
2019-05-22T12:20:32.785Z,71.90
2019-05-22T12:23:04.054Z,72.10
2019-05-22T12:25:35.090Z,72.00
2019-05-22T12:28:06.950Z,72.00
2019-05-22T12:30:38.225Z,72.40
2019-05-22T12:33:14.005Z,72.40
2019-05-22T12:35:44.454Z,72.50
2019-05-22T12:38:16.043Z,72.80
2019-05-22T12:40:47.825Z,73.10
2019-05-22T12:43:19.114Z,73.10
2019-05-22T12:45:50.371Z,73.70
2019-05-22T12:48:21.083Z,73.50
2019-05-22T12:50:53.219Z,73.80
2019-05-22T12:53:24.876Z,73.90
2019-05-22T12:55:56.544Z,74.60
2019-05-22T12:58:27.792Z,74.50
2019-05-22T13:00:59.919Z,74.40
2019-05-22T13:03:31.929Z,74.70
2019-05-22T13:06:03.239Z,74.70
2019-05-22T13:08:34.510Z,75.10
2019-05-22T13:11:05.726Z,75.20
2019-05-22T13:13:37.409Z,75.10
2019-05-22T13:16:09.570Z,75.20
2019-05-22T13:18:42.005Z,74.90
2019-05-22T13:21:15.163Z,74.80
2019-05-22T13:23:46.884Z,75.00
2019-05-22T13:26:18.956Z,75.00
2019-05-22T13:28:51.312Z,75.20
2019-05-22T13:31:22.381Z,75.40
2019-05-22T13:33:54.487Z,76.00
2019-05-22T13:36:25.882Z,76.00
2019-05-22T13:38:56.739Z,76.00
2019-05-22T13:41:27.602Z,76.10
2019-05-22T13:43:58.584Z,76.90
2019-05-22T13:46:29.735Z,76.20
2019-05-22T13:49:00.545Z,76.40
2019-05-22T13:51:31.764Z,76.10
2019-05-22T13:54:02.899Z,76.50
2019-05-22T13:56:34.054Z,76.60
2019-05-22T13:59:05.757Z,76.60
2019-05-22T14:01:36.671Z,76.90
2019-05-22T14:04:07.993Z,76.80
2019-05-22T14:06:39.854Z,76.90
2019-05-22T14:09:12.473Z,77.10
2019-05-22T14:11:44.291Z,76.90
2019-05-22T14:14:15.371Z,76.60
2019-05-22T14:16:49.128Z,77.20
2019-05-22T14:19:18.929Z,77.20
2019-05-22T14:21:51.830Z,77.20
2019-05-22T14:24:23.001Z,77.40
2019-05-22T14:26:54.032Z,77.40
2019-05-22T14:29:24.515Z,77.20
2019-05-22T14:31:56.883Z,76.80
2019-05-22T14:34:28.065Z,77.00
2019-05-22T14:36:59.043Z,77.00
2019-05-22T14:39:30.811Z,77.30
2019-05-22T14:42:02.240Z,77.10
2019-05-22T14:44:34.145Z,77.10
2019-05-22T14:47:14.616Z,77.80
2019-05-22T14:49:38.118Z,78.20
2019-05-22T14:52:08.951Z,78.00
2019-05-22T14:54:40.038Z,78.00
2019-05-22T14:57:11.357Z,78.20
2019-05-22T14:59:42.525Z,78.20
2019-05-22T15:02:13.572Z,78.20
2019-05-22T15:04:45.051Z,78.20
2019-05-22T15:07:16.014Z,78.40
2019-05-22T15:09:46.995Z,78.40
2019-05-22T15:12:17.972Z,78.40
2019-05-22T15:14:49.337Z,78.50
2019-05-22T15:17:31.821Z,78.70
2019-05-22T15:19:53.187Z,78.80
2019-05-22T15:22:24.598Z,78.80
2019-05-22T15:24:55.848Z,78.80
2019-05-22T15:27:27.111Z,79.00
2019-05-22T15:29:58.064Z,79.20
2019-05-22T15:32:29.117Z,78.90
2019-05-22T15:34:59.998Z,78.90
2019-05-22T15:37:30.972Z,78.90
2019-05-22T15:40:02.685Z,78.90
2019-05-22T15:42:36.761Z,79.10
2019-05-22T15:45:10.224Z,78.90
2019-05-22T15:47:54.691Z,78.80
2019-05-22T15:50:18.932Z,78.80
2019-05-22T15:52:52.443Z,78.80
2019-05-22T15:55:26.045Z,79.10
2019-05-22T15:57:59.959Z,78.70
2019-05-22T16:00:35.623Z,79.10
2019-05-22T16:03:08.852Z,79.30
2019-05-22T16:05:41.666Z,79.30
2019-05-22T16:08:14.342Z,79.30
2019-05-22T16:10:46.464Z,79.30
2019-05-22T16:13:19.935Z,79.50
2019-05-22T16:15:53.077Z,79.30
2019-05-22T16:18:26.692Z,79.80
2019-05-22T16:20:58.711Z,79.50
2019-05-22T16:23:32.024Z,79.40
2019-05-22T16:26:06.196Z,79.50
2019-05-22T16:28:39.863Z,79.80
2019-05-22T16:31:13.254Z,79.90
2019-05-22T16:33:45.745Z,80.80
2019-05-22T16:36:18.524Z,79.70
2019-05-22T16:38:50.049Z,79.40
2019-05-22T16:41:21.925Z,79.30
2019-05-22T16:43:53.235Z,79.20
2019-05-22T16:46:25.293Z,79.40
2019-05-22T16:48:57.025Z,79.80
2019-05-22T16:51:29.929Z,79.80
2019-05-22T16:54:02.789Z,79.40
2019-05-22T16:56:34.871Z,79.20
2019-05-22T16:59:06.181Z,78.90
2019-05-22T17:01:57.052Z,79.00
2019-05-22T17:04:09.854Z,79.70
2019-05-22T17:06:42.079Z,80.20
2019-05-22T17:09:14.897Z,80.40
2019-05-22T17:11:46.111Z,80.30
2019-05-22T17:14:18.541Z,80.00
2019-05-22T17:16:51.015Z,79.80
2019-05-22T17:19:27.174Z,80.00
2019-05-22T17:21:54.950Z,80.10
2019-05-22T17:24:26.300Z,80.60
2019-05-22T17:26:58.579Z,80.70
2019-05-22T17:29:29.916Z,80.80
2019-05-22T17:32:01.076Z,80.40
2019-05-22T17:34:33.190Z,80.40
2019-05-22T17:37:07.394Z,80.20
2019-05-22T17:39:40.388Z,80.20
2019-05-22T17:42:13.905Z,80.10
2019-05-22T17:44:47.640Z,79.90
2019-05-22T17:47:20.466Z,79.90
2019-05-22T17:49:52.132Z,79.90
2019-05-22T17:52:24.461Z,80.20
2019-05-22T17:54:56.277Z,80.20
2019-05-22T17:57:27.721Z,80.50
2019-05-22T17:59:59.254Z,80.20
2019-05-22T18:02:31.707Z,80.50
2019-05-22T18:05:06.533Z,80.50
2019-05-22T18:07:36.491Z,80.50
2019-05-22T18:10:10.442Z,80.20
2019-05-22T18:12:42.690Z,79.90
2019-05-22T18:15:16.386Z,80.10
2019-05-22T18:17:47.591Z,80.30
2019-05-22T18:20:20.084Z,80.10
2019-05-22T18:22:50.868Z,80.70
2019-05-22T18:25:22.235Z,80.60
2019-05-22T18:27:53.626Z,80.50
2019-05-22T18:30:25.598Z,80.40
2019-05-22T18:32:56.280Z,80.20
2019-05-22T18:35:27.866Z,80.30
2019-05-22T18:37:58.817Z,80.80
2019-05-22T18:40:29.801Z,81.30
2019-05-22T18:43:00.756Z,81.70
2019-05-22T18:45:32.749Z,81.40
2019-05-22T18:48:04.197Z,81.10
2019-05-22T18:50:35.672Z,81.40
2019-05-22T18:53:07.087Z,81.30
2019-05-22T18:55:37.942Z,81.90
2019-05-22T18:58:08.782Z,82.80
2019-05-22T19:00:40.282Z,82.90
2019-05-22T19:03:11.778Z,82.80
2019-05-22T19:05:43.906Z,82.60
2019-05-22T19:08:14.717Z,82.70
2019-05-22T19:10:45.963Z,82.90
2019-05-22T19:13:16.934Z,83.00
2019-05-22T19:15:47.779Z,83.40
2019-05-22T19:18:18.634Z,83.10
2019-05-22T19:20:49.684Z,83.00
2019-05-22T19:23:20.844Z,82.80
2019-05-22T19:25:51.988Z,83.00
2019-05-22T19:28:23.024Z,82.80
2019-05-22T19:30:53.878Z,82.90
2019-05-22T19:33:24.821Z,83.10
2019-05-22T19:35:55.794Z,83.40
2019-05-22T19:38:27.109Z,83.60
2019-05-22T19:40:58.353Z,84.10
2019-05-22T19:43:29.204Z,84.50
2019-05-22T19:46:00.229Z,84.40
2019-05-22T19:48:31.194Z,85.10
2019-05-22T19:51:02.202Z,85.10
2019-05-22T19:53:34.281Z,85.20
2019-05-22T19:56:08.000Z,85.10
2019-05-22T19:58:38.489Z,85.80
2019-05-22T20:01:09.360Z,85.80
2019-05-22T20:03:40.426Z,85.80
2019-05-22T20:06:12.928Z,85.50
2019-05-22T20:08:44.671Z,85.30
2019-05-22T20:11:15.306Z,85.10
2019-05-22T20:13:46.756Z,85.40
2019-05-22T20:16:17.738Z,85.30
2019-05-22T20:18:48.941Z,85.30
2019-05-22T20:21:19.961Z,85.40
2019-05-22T20:23:50.814Z,85.30
2019-05-22T20:26:22.321Z,85.10
2019-05-22T20:28:53.270Z,84.90
2019-05-22T20:31:24.224Z,84.80
2019-05-22T20:33:55.094Z,85.00
2019-05-22T20:36:26.453Z,85.10
2019-05-22T20:38:57.528Z,84.90
2019-05-22T20:41:28.421Z,84.80
2019-05-22T20:44:01.920Z,84.80
2019-05-22T20:46:37.402Z,84.90
2019-05-22T20:49:07.533Z,84.70
2019-05-22T20:51:39.416Z,84.60
2019-05-22T20:54:10.261Z,84.80
2019-05-22T20:56:42.440Z,84.60
2019-05-22T20:59:14.054Z,84.70
2019-05-22T21:01:44.844Z,85.00
2019-05-22T21:04:17.502Z,85.20
2019-05-22T21:06:51.499Z,85.40
2019-05-22T21:09:22.675Z,85.20
2019-05-22T21:11:54.625Z,85.40
2019-05-22T21:14:25.795Z,85.50
2019-05-22T21:16:56.753Z,85.60
2019-05-22T21:19:28.353Z,86.00
2019-05-22T21:22:01.062Z,86.20
2019-05-22T21:24:32.238Z,86.40
2019-05-22T21:27:03.062Z,87.10
2019-05-22T21:29:34.631Z,86.60
2019-05-22T21:32:06.991Z,86.50
2019-05-22T21:34:39.684Z,86.70
2019-05-22T21:37:11.460Z,86.90
2019-05-22T21:39:43.388Z,86.70
2019-05-22T21:42:14.310Z,86.70
2019-05-22T21:44:45.178Z,86.70
2019-05-22T21:47:16.010Z,86.70
2019-05-22T21:49:46.782Z,86.80
2019-05-22T21:52:17.938Z,86.90
2019-05-22T21:54:49.586Z,87.10
2019-05-22T21:57:21.449Z,87.00
2019-05-22T21:59:52.731Z,86.90
2019-05-22T22:02:27.215Z,87.10
2019-05-22T22:04:58.075Z,88.10
2019-05-22T22:07:30.888Z,87.50
2019-05-22T22:10:01.704Z,87.10
2019-05-22T22:12:33.685Z,86.50
2019-05-22T22:15:06.105Z,85.80
2019-05-22T22:17:38.561Z,85.60
2019-05-22T22:20:10.214Z,85.70
2019-05-22T22:22:42.775Z,86.00
2019-05-22T22:25:15.247Z,86.10
2019-05-22T22:27:46.568Z,86.30
